Time;durP1;ratioP1;P1;durP2;ratioP2;P2;SDS_P1;SDS_P2;PMS_P1;PMS_P2;Temp;Humidity;BMP_temperature;BMP_pressure;BME280_temperature;BME280_humidity;BME280_pressure;Samples;Min_cycle;Max_cycle;Signal;HPM_P1;HPM_P2
2020/12/12 00:01:34;;;;;;;26.45;12.80;;;;;;;2.12;87.70;99321.25;6151230;28;20052;-67
2020/12/12 00:04:35;;;;;;;26.20;13.10;;;;;;;2.17;87.49;99327.09;6151255;28;20447;-67
2020/12/12 00:07:36;;;;;;;30.92;12.90;;;;;;;2.06;87.40;99332.72;6151135;28;20047;-68
2020/12/12 00:10:36;;;;;;;25.70;12.52;;;;;;;2.09;88.68;99324.84;6150815;28;20130;-68
2020/12/12 00:13:38;;;;;;;30.42;13.77;;;;;;;2.03;88.96;99325.06;6151328;28;20051;-67
2020/12/12 00:16:39;;;;;;;30.15;14.25;;;;;;;2.07;88.24;99326.63;6150834;28;20070;-67
2020/12/12 00:19:40;;;;;;;29.30;13.85;;;;;;;2.17;87.63;99324.50;6150317;28;20051;-67
2020/12/12 00:22:41;;;;;;;27.20;12.60;;;;;;;2.07;88.48;99326.63;6150442;28;20057;-67
2020/12/12 00:25:47;;;;;;;26.83;12.57;;;;;;;1.96;89.61;99328.84;6150881;28;20130;-67
2020/12/12 00:28:49;;;;;;;28.95;14.13;;;;;;;1.92;90.51;99327.28;6150229;28;20047;-67
2020/12/12 00:31:54;;;;;;;29.95;13.80;;;;;;;1.92;91.00;99327.28;6151163;28;20050;-67
2020/12/12 00:34:56;;;;;;;30.88;13.70;;;;;;;1.84;91.48;99330.16;6150625;28;20142;-67
2020/12/12 00:37:57;;;;;;;27.77;14.32;;;;;;;1.76;92.79;99332.22;6150343;28;20105;-67
2020/12/12 00:40:58;;;;;;;35.97;14.38;;;;;;;1.71;93.69;99337.59;6150022;28;20098;-67
2020/12/12 00:44:00;;;;;;;35.83;15.38;;;;;;;1.79;93.34;99329.53;6150441;29;20523;-67
2020/12/12 00:47:03;;;;;;;29.50;15.20;;;;;;;1.74;93.18;99332.28;6149914;28;20051;-67
2020/12/12 00:50:04;;;;;;;31.88;14.90;;;;;;;1.71;93.70;99328.97;6150029;28;20051;-68
2020/12/12 00:53:05;;;;;;;28.40;15.05;;;;;;;1.68;94.47;99335.13;6150344;28;20149;-67
2020/12/12 00:56:05;;;;;;;31.05;15.10;;;;;;;1.74;93.81;99331.44;6150065;28;20153;-67
2020/12/12 00:59:07;;;;;;;27.63;14.02;;;;;;;1.74;93.25;99329.69;6149734;28;20512;-67
2020/12/12 01:02:08;;;;;;;33.97;15.02;;;;;;;1.73;93.63;99330.63;6150237;28;20062;-67
2020/12/12 01:05:09;;;;;;;28.50;14.50;;;;;;;1.93;92.07;99332.38;6149950;28;20107;-67
2020/12/12 01:08:10;;;;;;;29.77;14.00;;;;;;;1.76;92.49;99330.47;6150012;28;20094;-67
2020/12/12 01:11:12;;;;;;;34.55;16.75;;;;;;;1.91;92.90;99334.22;6149480;28;20508;-67
2020/12/12 01:14:14;;;;;;;33.15;14.60;;;;;;;1.79;92.86;99332.09;6149834;28;20071;-67
2020/12/12 01:17:14;;;;;;;30.83;15.13;;;;;;;1.77;92.92;99326.13;6149529;28;20051;-67
2020/12/12 01:20:15;;;;;;;28.60;14.27;;;;;;;1.81;93.05;99325.09;6149752;28;20051;-67
2020/12/12 01:23:17;;;;;;;31.85;14.68;;;;;;;1.78;93.01;99333.84;6149668;28;20061;-67
2020/12/12 01:26:17;;;;;;;31.33;14.88;;;;;;;1.84;93.38;99342.28;6149458;28;20044;-67
2020/12/12 01:29:19;;;;;;;30.63;14.80;;;;;;;1.99;92.66;99337.31;6149344;28;20099;-67
2020/12/12 01:32:20;;;;;;;29.60;14.63;;;;;;;1.99;92.22;99333.88;6149565;28;20051;-67
2020/12/12 01:35:21;;;;;;;30.17;14.82;;;;;;;1.94;92.62;99338.41;6149517;28;20114;-67
2020/12/12 01:38:22;;;;;;;33.95;16.13;;;;;;;2.02;92.90;99338.94;6149381;28;20059;-67
2020/12/12 01:41:22;;;;;;;31.67;15.50;;;;;;;1.91;93.10;99333.38;6149473;28;20055;-67
2020/12/12 01:44:24;;;;;;;32.67;15.95;;;;;;;1.91;93.50;99335.97;6149166;28;20051;-67
2020/12/12 01:47:27;;;;;;;32.17;15.13;;;;;;;1.94;93.66;99347.03;6149434;28;20058;-67
2020/12/12 01:50:28;;;;;;;32.53;15.57;;;;;;;1.84;94.01;99342.28;6149065;28;20412;-66
2020/12/12 01:53:29;;;;;;;34.55;16.73;;;;;;;1.87;94.03;99345.59;6152362;28;20047;-67
2020/12/12 01:56:30;;;;;;;35.45;17.33;;;;;;;1.87;94.91;99345.59;6154119;28;20420;-67
2020/12/12 01:59:32;;;;;;;32.70;15.90;;;;;;;1.98;95.04;99342.56;6153930;28;20079;-67
2020/12/12 02:02:34;;;;;;;39.55;17.17;;;;;;;1.92;94.43;99341.06;6154151;28;20051;-67
2020/12/12 02:05:38;;;;;;;31.70;15.57;;;;;;;2.08;93.63;99348.19;6154030;28;20055;-67
2020/12/12 02:08:40;;;;;;;41.75;16.75;;;;;;;1.94;94.40;99343.59;6153598;28;20058;-67
2020/12/12 02:11:41;;;;;;;36.72;17.95;;;;;;;2.01;95.28;99350.22;6153667;28;20039;-67
2020/12/12 02:14:43;;;;;;;36.95;18.40;;;;;;;1.95;95.29;99346.13;6154090;28;20137;-67
2020/12/12 02:17:46;;;;;;;36.20;17.02;;;;;;;2.10;95.39;99338.63;6153448;28;20048;-67
2020/12/12 02:20:51;;;;;;;35.45;17.15;;;;;;;2.11;95.21;99343.75;6153665;28;20051;-67
2020/12/12 02:23:52;;;;;;;38.13;17.67;;;;;;;2.01;96.00;99332.09;6153383;28;20648;-67
2020/12/12 02:26:53;;;;;;;35.63;17.67;;;;;;;1.97;96.86;99323.59;6153685;28;20054;-67
2020/12/12 02:29:54;;;;;;;41.72;19.60;;;;;;;1.89;96.81;99336.00;6153308;28;20055;-67
2020/12/12 02:32:55;;;;;;;39.80;18.55;;;;;;;2.00;97.42;99333.84;6153502;29;20062;-67
2020/12/12 02:35:56;;;;;;;35.92;18.08;;;;;;;1.93;97.37;99334.13;6153353;28;20055;-67
2020/12/12 02:38:58;;;;;;;42.13;19.73;;;;;;;1.90;97.62;99329.06;6152870;28;20125;-67
2020/12/12 02:41:59;;;;;;;45.17;17.92;;;;;;;2.03;97.76;99343.22;6153068;28;20055;-67
2020/12/12 02:45:00;;;;;;;41.88;18.30;;;;;;;2.12;97.60;99332.47;6153178;28;20103;-67
2020/12/12 02:48:01;;;;;;;38.15;17.90;;;;;;;2.09;96.89;99331.75;6152959;28;20054;-67
2020/12/12 02:51:01;;;;;;;36.80;17.77;;;;;;;2.01;97.41;99329.50;6152744;28;20047;-67
2020/12/12 02:54:03;;;;;;;40.38;19.65;;;;;;;2.03;97.07;99336.28;6153133;28;20508;-67
2020/12/12 02:57:04;;;;;;;40.53;18.98;;;;;;;1.98;97.80;99332.19;6152891;28;20051;-67
2020/12/12 03:00:08;;;;;;;40.45;19.08;;;;;;;1.97;97.84;99328.78;6152383;28;20062;-67
2020/12/12 03:03:08;;;;;;;44.65;20.23;;;;;;;1.96;97.88;99332.28;6152632;28;20515;-67
2020/12/12 03:06:09;;;;;;;41.70;18.83;;;;;;;2.15;96.99;99336.69;6152311;28;20051;-67
2020/12/12 03:09:11;;;;;;;40.05;18.77;;;;;;;2.25;96.88;99338.00;6152281;28;20456;-67
2020/12/12 03:12:12;;;;;;;46.72;20.35;;;;;;;2.07;97.15;99333.56;6152507;28;20055;-68
2020/12/12 03:15:13;;;;;;;40.45;19.33;;;;;;;2.05;97.07;99341.41;6152809;28;20054;-67
2020/12/12 03:18:13;;;;;;;39.00;18.05;;;;;;;2.16;97.46;99334.03;6152209;28;20073;-67
2020/12/12 03:21:14;;;;;;;43.28;20.20;;;;;;;2.12;97.18;99331.63;6152311;28;20074;-67
2020/12/12 03:24:21;;;;;;;44.42;19.98;;;;;;;2.15;97.26;99347.06;6152125;28;20126;-67
2020/12/12 03:27:22;;;;;;;41.30;18.92;;;;;;;2.17;96.87;99346.06;6148757;28;20054;-67
2020/12/12 03:30:23;;;;;;;44.83;19.15;;;;;;;2.16;96.94;99338.38;6148553;29;20500;-67
2020/12/12 03:33:24;;;;;;;44.03;20.80;;;;;;;2.24;97.45;99341.50;6152000;28;20051;-67
2020/12/12 03:36:25;;;;;;;46.60;20.38;;;;;;;2.29;96.60;99347.31;6152079;28;20047;-67
2020/12/12 03:39:27;;;;;;;42.55;20.02;;;;;;;2.27;96.59;99354.31;6151308;28;20062;-67
2020/12/12 03:42:27;;;;;;;44.25;18.85;;;;;;;2.28;97.01;99351.66;6152014;28;20051;-67
2020/12/12 03:45:28;;;;;;;45.03;20.05;;;;;;;2.29;96.45;99353.34;6145295;28;20058;-67
2020/12/12 03:48:29;;;;;;;48.00;21.52;;;;;;;2.36;96.51;99353.06;6151642;28;20515;-67
2020/12/12 03:51:30;;;;;;;46.65;20.75;;;;;;;2.26;96.97;99360.41;6150989;28;20424;-67
2020/12/12 03:54:32;;;;;;;47.00;22.02;;;;;;;2.26;96.58;99348.28;6151908;28;20058;-67
2020/12/12 03:57:33;;;;;;;52.20;22.05;;;;;;;2.21;96.66;99352.81;6180356;23;20050;-72
2020/12/12 04:00:34;;;;;;;46.55;20.88;;;;;;;2.32;96.75;99346.34;6174828;28;20061;-72
2020/12/12 04:03:35;;;;;;;46.80;21.02;;;;;;;2.27;96.78;99347.41;6153878;28;20401;-72
2020/12/12 04:06:35;;;;;;;46.60;22.27;;;;;;;2.33;96.53;99346.28;6150987;28;20055;-72
2020/12/12 04:09:37;;;;;;;46.83;20.83;;;;;;;2.36;96.43;99351.31;6150980;28;20051;-72
2020/12/12 04:12:38;;;;;;;51.25;22.67;;;;;;;2.38;96.26;99348.69;6150915;28;20047;-72
2020/12/12 04:15:39;;;;;;;50.42;22.95;;;;;;;2.37;95.94;99355.63;6150633;28;20051;-72
2020/12/12 04:18:39;;;;;;;47.65;21.33;;;;;;;2.51;95.90;99353.28;6150526;28;20055;-72
2020/12/12 04:21:40;;;;;;;47.72;21.88;;;;;;;2.33;96.13;99359.25;6151150;28;20070;-72
2020/12/12 04:24:42;;;;;;;51.42;23.02;;;;;;;2.36;95.77;99348.72;6151137;28;20055;-72
2020/12/12 04:27:43;;;;;;;51.53;21.95;;;;;;;2.39;96.65;99353.78;6150594;28;20047;-72
2020/12/12 04:30:44;;;;;;;49.92;21.65;;;;;;;2.56;96.69;99358.28;6150079;28;20078;-72
2020/12/12 04:33:44;;;;;;;47.72;21.75;;;;;;;2.47;96.07;99354.31;6150897;28;20059;-72
2020/12/12 04:36:45;;;;;;;54.05;22.70;;;;;;;2.51;95.47;99355.03;6150059;28;20126;-72
2020/12/12 04:39:47;;;;;;;45.42;20.73;;;;;;;2.56;95.38;99357.44;6150302;28;20420;-72
2020/12/12 04:42:48;;;;;;;47.28;22.05;;;;;;;2.51;95.50;99358.47;6150467;28;20058;-72
2020/12/12 04:45:49;;;;;;;50.28;23.60;;;;;;;2.37;96.00;99353.03;6150579;28;20519;-72
2020/12/12 04:48:50;;;;;;;47.22;21.90;;;;;;;2.53;96.52;99356.63;6149905;28;20055;-72
2020/12/12 04:51:52;;;;;;;48.88;20.67;;;;;;;2.45;96.54;99348.38;6150602;28;20055;-72
2020/12/12 04:54:54;;;;;;;47.53;22.63;;;;;;;2.51;96.31;99353.28;6150426;28;20058;-72
2020/12/12 04:57:57;;;;;;;49.55;22.92;;;;;;;2.52;95.74;99357.56;6149981;28;20054;-72
2020/12/12 05:00:58;;;;;;;52.75;22.75;;;;;;;2.43;96.25;99364.88;6149884;28;20058;-72
2020/12/12 05:04:02;;;;;;;46.58;21.60;;;;;;;2.42;96.89;99358.03;6149924;28;20055;-72
2020/12/12 05:07:02;;;;;;;49.05;23.00;;;;;;;2.40;96.51;99360.66;6149772;28;20054;-72
2020/12/12 05:10:05;;;;;;;47.67;22.77;;;;;;;2.43;95.83;99370.06;6149739;28;20055;-72
2020/12/12 05:13:17;;;;;;;48.42;21.75;;;;;;;2.53;95.95;99367.00;6150000;28;20054;-72
2020/12/12 05:16:18;;;;;;;46.75;21.65;;;;;;;2.50;95.38;99364.56;6149890;28;20062;-72
2020/12/12 05:19:19;;;;;;;43.13;21.40;;;;;;;2.53;95.68;99373.94;6149490;28;20062;-72
2020/12/12 05:22:20;;;;;;;46.92;22.02;;;;;;;2.48;95.87;99365.53;6149936;28;20055;-72
2020/12/12 05:25:22;;;;;;;49.63;22.83;;;;;;;2.41;95.66;99370.16;6149902;28;20055;-72
2020/12/12 05:28:23;;;;;;;48.85;22.27;;;;;;;2.52;96.19;99365.34;6148156;28;20078;-72
2020/12/12 05:31:25;;;;;;;44.65;22.50;;;;;;;2.51;95.71;99368.84;6149426;28;20054;-72
2020/12/12 05:34:27;;;;;;;49.83;21.92;;;;;;;2.50;96.01;99374.09;6149451;28;20136;-72
2020/12/12 05:37:28;;;;;;;49.15;23.08;;;;;;;2.49;95.78;99369.81;6149248;28;20510;-72
2020/12/12 05:40:29;;;;;;;45.75;22.08;;;;;;;2.42;96.25;99376.16;6149092;28;20051;-72
2020/12/12 05:43:35;;;;;;;48.67;22.13;;;;;;;2.41;96.18;99371.91;6149547;28;20058;-72
2020/12/12 05:46:37;;;;;;;48.53;22.73;;;;;;;2.48;96.65;99375.91;6149090;28;20416;-72
2020/12/12 05:49:37;;;;;;;55.80;23.90;;;;;;;2.42;96.62;99384.78;6149053;28;20051;-72
2020/12/12 05:52:41;;;;;;;53.53;24.23;;;;;;;2.46;96.81;99382.91;6149537;28;20058;-72
2020/12/12 05:55:45;;;;;;;52.40;22.00;;;;;;;2.46;96.53;99378.56;6148987;28;20051;-72
2020/12/12 05:58:47;;;;;;;49.85;23.70;;;;;;;2.54;96.31;99383.41;6148635;28;20052;-72
2020/12/12 06:01:54;;;;;;;51.83;22.77;;;;;;;2.43;96.14;99391.66;6149259;28;20500;-72
2020/12/12 06:05:02;;;;;;;53.22;23.70;;;;;;;2.45;96.36;99389.84;6149641;28;20516;-72
2020/12/12 06:08:04;;;;;;;56.58;25.58;;;;;;;2.39;96.97;99392.69;6148941;28;20050;-72
2020/12/12 06:11:08;;;;;;;50.92;24.08;;;;;;;2.56;96.47;99394.56;6149082;28;20047;-72
2020/12/12 06:14:09;;;;;;;50.88;24.13;;;;;;;2.46;96.15;99401.91;6149055;28;20051;-72
2020/12/12 06:17:18;;;;;;;53.92;23.92;;;;;;;2.42;96.48;99400.34;6149134;28;20051;-72
2020/12/12 06:20:20;;;;;;;47.73;22.67;;;;;;;2.48;96.33;99396.66;6148796;28;20051;-72
2020/12/12 06:23:21;;;;;;;50.85;23.85;;;;;;;2.45;96.83;99405.41;6149245;28;20062;-72
2020/12/12 06:26:30;;;;;;;47.47;23.48;;;;;;;2.44;96.80;99413.22;6148604;28;20078;-72
2020/12/12 06:29:38;;;;;;;50.85;23.70;;;;;;;2.46;96.90;99414.88;6148868;28;20063;-74
2020/12/12 06:32:39;;;;;;;51.22;24.83;;;;;;;2.51;96.58;99417.28;6149277;28;20047;-71
2020/12/12 06:35:40;;;;;;;50.70;23.98;;;;;;;2.56;96.91;99412.72;6148813;28;20047;-74
2020/12/12 06:38:41;;;;;;;45.53;23.42;;;;;;;2.49;96.19;99416.47;6149919;28;20043;-73
2020/12/12 06:41:43;;;;;;;45.45;21.90;;;;;;;2.47;95.84;99421.72;6153199;28;20067;-73
2020/12/12 06:44:44;;;;;;;44.88;22.02;;;;;;;2.56;96.21;99424.84;6153416;28;20063;-73
2020/12/12 06:47:47;;;;;;;48.85;23.55;;;;;;;2.47;95.87;99420.91;6139487;29;20191;-73
2020/12/12 06:50:48;;;;;;;49.95;23.60;;;;;;;2.45;96.48;99426.16;6141313;29;20047;-73
2020/12/12 06:53:49;;;;;;;56.65;25.95;;;;;;;2.45;96.53;99426.16;6135403;28;20062;-73
2020/12/12 06:56:51;;;;;;;46.67;22.38;;;;;;;2.50;96.00;99432.00;6141012;29;20114;-73
2020/12/12 06:59:52;;;;;;;48.28;22.73;;;;;;;2.50;96.05;99436.34;6149853;28;20051;-73
2020/12/12 07:02:58;;;;;;;49.00;24.67;;;;;;;2.47;96.31;99441.63;6152350;28;20508;-73
2020/12/12 07:06:04;;;;;;;44.17;22.13;;;;;;;2.44;96.57;99445.19;6152542;28;20489;-73
2020/12/12 07:09:07;;;;;;;44.63;22.77;;;;;;;2.49;95.73;99457.97;6152193;28;20511;-73
2020/12/12 07:12:09;;;;;;;49.75;22.35;;;;;;;2.47;96.38;99452.84;6152614;28;20066;-73
2020/12/12 07:15:10;;;;;;;52.22;23.75;;;;;;;2.41;96.18;99462.63;6152571;28;20047;-73
2020/12/12 07:18:13;;;;;;;49.30;22.63;;;;;;;2.40;96.36;99463.53;6152068;28;20449;-73
2020/12/12 07:21:14;;;;;;;52.17;23.75;;;;;;;2.38;96.91;99457.56;6152175;28;20062;-73
2020/12/12 07:24:15;;;;;;;46.67;22.92;;;;;;;2.48;96.19;99459.72;6152347;28;20043;-73
2020/12/12 07:27:17;;;;;;;50.05;23.63;;;;;;;2.53;96.30;99460.38;6151590;28;20744;-74
2020/12/12 07:30:18;;;;;;;46.45;21.92;;;;;;;2.45;96.54;99464.16;6152063;28;20059;-73
2020/12/12 07:33:18;;;;;;;43.13;21.42;;;;;;;2.55;96.44;99465.50;6152206;28;20051;-73
2020/12/12 07:36:19;;;;;;;48.58;23.42;;;;;;;2.48;96.02;99466.66;6151989;28;20055;-72
2020/12/12 07:39:26;;;;;;;52.10;24.00;;;;;;;2.37;96.03;99472.28;6151542;28;20055;-73
2020/12/12 07:42:33;;;;;;;49.58;23.30;;;;;;;2.44;96.16;99473.69;6152001;28;20059;-73
2020/12/12 07:45:46;;;;;;;47.65;22.52;;;;;;;2.51;96.41;99476.91;6152177;28;20058;-73
2020/12/12 07:48:59;;;;;;;49.03;23.15;;;;;;;2.47;96.55;99483.97;6151243;28;20047;-73
2020/12/12 07:52:02;;;;;;;47.05;22.30;;;;;;;2.47;96.47;99483.97;6150948;28;20178;-73
2020/12/12 07:55:06;;;;;;;48.58;22.95;;;;;;;2.55;96.21;99488.84;6151504;28;20060;-73
2020/12/12 07:58:15;;;;;;;51.13;24.10;;;;;;;2.52;96.19;99489.78;6151225;28;20162;-73
2020/12/12 08:01:15;;;;;;;50.88;23.65;;;;;;;2.50;96.46;99503.75;6151101;28;20062;-73
2020/12/12 08:04:20;;;;;;;45.95;22.15;;;;;;;2.65;95.91;99499.69;6151516;28;20047;-73
2020/12/12 08:07:21;;;;;;;47.20;22.88;;;;;;;2.62;95.08;99505.81;6151020;28;20050;-73
2020/12/12 08:10:22;;;;;;;45.90;21.55;;;;;;;2.69;95.14;99515.06;6150870;28;20464;-72
2020/12/12 08:13:24;;;;;;;49.97;21.13;;;;;;;2.63;96.07;99517.03;6151278;28;20058;-73
2020/12/12 08:16:28;;;;;;;43.90;22.38;;;;;;;2.68;96.05;99523.75;6150945;28;20052;-73
2020/12/12 08:19:29;;;;;;;53.92;24.67;;;;;;;2.58;95.70;99529.34;6150614;28;20051;-72
2020/12/12 08:22:31;;;;;;;45.17;22.08;;;;;;;2.58;96.31;99539.72;6151134;28;20094;-73
2020/12/12 08:25:34;;;;;;;49.40;22.67;;;;;;;2.68;96.04;99539.31;6150820;28;20047;-73
2020/12/12 08:28:36;;;;;;;47.45;22.98;;;;;;;2.67;96.38;99541.94;6150699;28;20688;-73
2020/12/12 08:31:38;;;;;;;57.22;22.23;;;;;;;2.70;95.68;99547.84;6150840;28;20058;-73
2020/12/12 08:34:39;;;;;;;52.33;23.60;;;;;;;2.73;95.30;99539.13;6150981;28;20055;-73
2020/12/12 08:37:50;;;;;;;49.88;23.85;;;;;;;2.69;95.87;99543.59;6150473;28;20051;-73
2020/12/12 08:40:51;;;;;;;49.03;22.65;;;;;;;2.69;95.84;99542.75;6150454;28;20066;-74
2020/12/12 08:43:52;;;;;;;53.42;22.98;;;;;;;2.86;95.38;99549.81;6150814;28;20133;-74
2020/12/12 08:46:54;;;;;;;49.25;23.02;;;;;;;2.86;95.31;99553.28;6150003;28;20043;-73
2020/12/12 08:49:55;;;;;;;47.83;22.60;;;;;;;2.91;94.87;99553.09;6150325;28;20066;-73
2020/12/12 08:52:56;;;;;;;46.28;22.20;;;;;;;2.79;94.98;99557.03;6150198;28;20059;-73
2020/12/12 08:56:04;;;;;;;45.42;22.55;;;;;;;2.84;95.50;99560.28;6149648;28;20058;-73
2020/12/12 08:59:18;;;;;;;40.28;20.90;;;;;;;2.80;95.74;99567.31;6149734;28;20067;-73
2020/12/12 09:02:19;;;;;;;49.58;23.02;;;;;;;2.88;95.64;99561.84;6150279;28;20059;-74
2020/12/12 09:05:20;;;;;;;45.28;21.98;;;;;;;2.92;95.84;99565.16;6150155;28;20113;-74
2020/12/12 09:08:21;;;;;;;45.28;20.98;;;;;;;2.87;96.18;99570.53;6149825;28;20074;-74
2020/12/12 09:11:22;;;;;;;53.38;22.83;;;;;;;2.96;95.72;99570.16;6149582;28;20051;-74
2020/12/12 09:14:25;;;;;;;45.60;23.17;;;;;;;3.03;95.71;99587.16;6149711;28;20054;-74
2020/12/12 09:17:25;;;;;;;49.20;21.75;;;;;;;3.08;95.49;99592.16;6141244;28;20043;-74
2020/12/12 09:20:26;;;;;;;48.80;23.42;;;;;;;3.14;95.83;99591.06;6149296;28;20512;-74
2020/12/12 09:23:27;;;;;;;43.33;20.75;;;;;;;3.09;95.23;99599.06;6149763;28;20142;-74
2020/12/12 09:26:28;;;;;;;47.25;21.48;;;;;;;3.10;95.03;99603.31;6148960;28;20053;-74
2020/12/12 09:29:30;;;;;;;42.28;19.15;;;;;;;3.12;95.88;99600.66;6146973;28;20464;-74
2020/12/12 09:32:30;;;;;;;45.25;21.67;;;;;;;3.26;94.55;99608.72;6149637;28;20047;-74
2020/12/12 09:35:31;;;;;;;49.20;22.38;;;;;;;3.19;94.80;99613.31;6149599;28;20047;-74
2020/12/12 09:38:33;;;;;;;42.53;21.23;;;;;;;3.27;94.64;99613.88;6149159;28;20043;-73
2020/12/12 09:41:34;;;;;;;47.97;21.83;;;;;;;3.29;94.91;99612.03;6149233;28;20144;-74
2020/12/12 09:44:35;;;;;;;48.38;22.20;;;;;;;3.21;94.95;99624.47;6149670;28;20138;-74
2020/12/12 09:47:36;;;;;;;46.80;22.00;;;;;;;3.15;95.21;99616.97;6149093;28;20055;-73
2020/12/12 09:50:37;;;;;;;51.08;23.35;;;;;;;3.18;95.22;99613.38;6149255;28;20051;-74
2020/12/12 09:53:38;;;;;;;48.67;23.52;;;;;;;3.24;95.30;99616.56;6149029;28;20055;-74
2020/12/12 09:56:39;;;;;;;48.65;21.35;;;;;;;3.30;95.50;99621.50;6149138;28;20074;-74
2020/12/12 09:59:41;;;;;;;45.15;21.63;;;;;;;3.32;95.56;99621.47;6148897;28;20055;-74
2020/12/12 10:02:42;;;;;;;47.63;21.70;;;;;;;3.40;95.64;99623.72;6185904;23;20054;-73
2020/12/12 10:05:43;;;;;;;48.60;21.80;;;;;;;3.51;95.65;99631.91;6168789;28;20046;-74
2020/12/12 10:08:44;;;;;;;44.72;20.15;;;;;;;3.50;94.57;99628.47;6171968;28;20062;-74
2020/12/12 10:11:49;;;;;;;50.55;22.77;;;;;;;3.51;94.27;99630.16;6153959;28;20468;-73
2020/12/12 10:14:50;;;;;;;52.15;22.27;;;;;;;3.51;94.92;99626.72;6165089;28;20135;-72
2020/12/12 10:17:52;;;;;;;42.95;21.25;;;;;;;3.60;94.70;99633.28;6177477;28;20054;-73
2020/12/12 10:20:54;;;;;;;42.47;20.35;;;;;;;3.58;94.74;99632.47;6164427;28;20422;-73
2020/12/12 10:23:55;;;;;;;41.55;20.50;;;;;;;3.56;94.62;99637.75;6176233;28;20423;-73
2020/12/12 10:26:56;;;;;;;40.83;20.00;;;;;;;3.63;93.94;99631.38;6177373;28;20070;-72
2020/12/12 10:29:58;;;;;;;40.33;18.92;;;;;;;3.63;93.27;99639.16;6177043;28;20051;-71
2020/12/12 10:33:00;;;;;;;43.17;20.80;;;;;;;3.63;94.16;99638.31;6172322;28;20058;-68
2020/12/12 10:36:01;;;;;;;40.58;19.17;;;;;;;3.73;94.50;99643.09;6163232;28;20572;-73
2020/12/12 10:39:02;;;;;;;41.13;19.55;;;;;;;3.96;93.22;99636.88;6174312;28;20057;-71
2020/12/12 10:42:03;;;;;;;39.63;18.73;;;;;;;3.83;93.38;99637.47;6175273;28;20054;-72
2020/12/12 10:45:06;;;;;;;51.00;21.30;;;;;;;3.81;93.89;99634.94;6177301;28;20059;-72
2020/12/12 10:48:06;;;;;;;48.55;22.10;;;;;;;3.85;93.88;99640.84;6176859;28;20054;-71
2020/12/12 10:51:07;;;;;;;45.35;20.67;;;;;;;3.96;93.42;99655.06;6176634;28;20055;-70
2020/12/12 10:54:08;;;;;;;46.05;20.80;;;;;;;3.92;93.59;99647.47;6176864;28;20106;-72
2020/12/12 10:57:09;;;;;;;42.33;20.67;;;;;;;3.93;93.42;99649.16;6176675;28;20047;-73
2020/12/12 11:00:11;;;;;;;50.15;22.75;;;;;;;3.97;93.27;99650.72;6176737;28;20409;-72
2020/12/12 11:03:12;;;;;;;41.63;21.50;;;;;;;4.08;92.97;99654.50;6176350;28;20058;-72
2020/12/12 11:06:13;;;;;;;41.78;20.63;;;;;;;4.15;92.49;99656.88;6176344;28;20047;-72
2020/12/12 11:09:14;;;;;;;44.00;20.25;;;;;;;4.16;92.72;99658.53;6176388;28;20051;-72
2020/12/12 11:12:15;;;;;;;41.30;19.25;;;;;;;4.16;92.88;99664.59;6176473;28;20055;-68
2020/12/12 11:15:17;;;;;;;38.30;20.40;;;;;;;4.24;92.70;99665.09;6176144;28;20087;-71
2020/12/12 11:18:18;;;;;;;44.97;19.77;;;;;;;4.29;92.59;99657.09;6171135;28;20046;-69
2020/12/12 11:21:19;;;;;;;42.15;20.02;;;;;;;4.22;92.30;99663.47;6163876;28;20567;-74
2020/12/12 11:24:20;;;;;;;40.97;19.40;;;;;;;4.30;92.35;99651.81;6170812;28;20066;-72
2020/12/12 11:27:21;;;;;;;37.38;18.42;;;;;;;4.37;92.30;99654.16;6170374;28;20435;-72
2020/12/12 11:30:24;;;;;;;40.25;19.77;;;;;;;4.35;92.73;99668.97;6167093;28;20054;-72
2020/12/12 11:33:25;;;;;;;36.95;19.10;;;;;;;4.39;92.43;99660.09;6176383;28;20055;-72
2020/12/12 11:36:41;;;;;;;38.80;19.50;;;;;;;4.49;92.07;99669.19;6170755;28;20074;-71
2020/12/12 11:39:49;;;;;;;40.30;19.30;;;;;;;4.50;91.39;99666.53;6166665;28;20046;-73
2020/12/12 11:49:33;;;;;;;41.50;19.55;;;;;;;4.66;90.51;99681.41;6151811;28;20055;-73
2020/12/12 11:52:36;;;;;;;40.50;18.98;;;;;;;4.64;90.54;99675.44;6168214;28;20133;-71
2020/12/12 11:55:37;;;;;;;38.75;19.77;;;;;;;4.54;90.54;99688.88;6175574;28;20069;-70
2020/12/12 11:58:38;;;;;;;41.38;19.92;;;;;;;4.68;90.55;99683.06;6174979;28;20655;-72
2020/12/12 12:01:39;;;;;;;37.85;18.83;;;;;;;4.69;89.59;99683.88;6159290;28;20624;-72
2020/12/12 12:04:41;;;;;;;42.90;19.25;;;;;;;4.65;89.96;99687.53;6175290;28;20522;-72
2020/12/12 12:07:44;;;;;;;36.22;18.23;;;;;;;4.72;90.36;99674.16;6167133;28;20040;-73
2020/12/12 12:10:55;;;;;;;38.65;18.70;;;;;;;4.66;90.75;99694.44;6162063;28;20047;-74
2020/12/12 12:13:56;;;;;;;38.35;19.38;;;;;;;4.60;91.11;99685.16;6168014;28;20158;-71
2020/12/12 12:16:57;;;;;;;38.20;19.77;;;;;;;4.70;90.17;99694.22;6170992;28;20047;-70
2020/12/12 12:19:59;;;;;;;37.92;18.55;;;;;;;4.72;90.93;99701.94;6169849;28;20515;-71
2020/12/12 12:23:00;;;;;;;36.38;19.73;;;;;;;4.85;90.82;99692.66;6166263;28;20051;-72
2020/12/12 12:26:01;;;;;;;36.10;18.33;;;;;;;4.90;90.02;99700.25;6170958;28;20058;-74
2020/12/12 12:29:02;;;;;;;39.03;19.90;;;;;;;4.82;90.68;99705.84;6167165;28;20157;-74
2020/12/12 12:32:04;;;;;;;41.42;19.35;;;;;;;4.79;90.38;99704.19;6167596;28;20055;-72
2020/12/12 12:35:04;;;;;;;35.53;18.80;;;;;;;4.77;90.68;99705.19;6166447;28;20055;-70
2020/12/12 12:38:05;;;;;;;40.35;19.00;;;;;;;4.85;90.61;99703.06;6165774;28;20054;-71
2020/12/12 12:41:07;;;;;;;39.03;19.52;;;;;;;4.92;90.66;99703.63;6171094;28;20039;-74
2020/12/12 12:44:08;;;;;;;41.30;18.75;;;;;;;4.92;89.89;99708.84;6165199;28;20415;-70
2020/12/12 12:47:09;;;;;;;38.45;20.33;;;;;;;4.94;90.74;99712.22;6173946;28;20507;-73
2020/12/12 12:50:13;;;;;;;34.10;17.55;;;;;;;4.97;90.71;99712.06;6170309;28;20047;-73
2020/12/12 12:53:14;;;;;;;37.78;19.00;;;;;;;5.00;90.69;99714.53;6169774;28;20055;-72
2020/12/12 12:56:21;;;;;;;37.80;19.60;;;;;;;4.89;90.34;99720.22;6173902;28;20059;-68
2020/12/12 12:59:22;;;;;;;37.30;18.63;;;;;;;4.92;90.92;99714.88;6173849;28;20051;-68
2020/12/12 13:02:23;;;;;;;35.38;18.33;;;;;;;4.93;91.22;99715.72;6173750;28;20061;-67
2020/12/12 13:05:24;;;;;;;32.42;17.65;;;;;;;4.87;91.32;99729.88;6172663;28;20062;-67
2020/12/12 13:08:25;;;;;;;34.92;18.63;;;;;;;4.89;91.26;99728.03;6165737;28;20133;-67
2020/12/12 13:11:26;;;;;;;35.65;18.30;;;;;;;4.92;90.56;99722.69;6170824;28;20054;-70
2020/12/12 13:14:27;;;;;;;36.50;18.83;;;;;;;4.93;90.18;99729.59;6173944;28;20050;-70
2020/12/12 13:17:29;;;;;;;34.03;17.92;;;;;;;4.89;90.35;99735.84;6173352;28;20094;-67
2020/12/12 13:20:37;;;;;;;39.05;18.40;;;;;;;4.90;90.63;99734.94;6173505;28;20542;-67
2020/12/12 13:23:38;;;;;;;37.75;18.77;;;;;;;5.00;90.19;99740.59;6173368;28;20590;-70
2020/12/12 13:26:39;;;;;;;36.50;18.27;;;;;;;5.08;89.78;99736.69;6173174;28;20090;-67
2020/12/12 13:33:02;;;;;;;40.03;19.48;;;;;;;5.04;90.03;99747.31;6173326;28;20050;-67
2020/12/12 13:36:06;;;;;;;33.42;18.48;;;;;;;5.07;89.74;99744.56;6173159;28;20058;-67
2020/12/12 13:39:07;;;;;;;35.10;18.15;;;;;;;5.04;90.00;99745.56;6173007;28;20435;-67
2020/12/12 13:42:08;;;;;;;34.60;18.48;;;;;;;4.98;89.45;99743.22;6173280;28;20065;-68
2020/12/12 13:45:09;;;;;;;36.80;19.80;;;;;;;5.02;89.94;99741.34;6173386;28;20059;-67
2020/12/12 13:48:10;;;;;;;37.60;18.90;;;;;;;5.03;90.21;99756.03;6173658;28;20043;-67
2020/12/12 13:51:11;;;;;;;38.53;19.20;;;;;;;5.04;89.90;99749.91;6177902;28;20058;-68
2020/12/12 13:54:12;;;;;;;35.53;19.13;;;;;;;4.94;90.81;99759.91;6178060;28;20058;-68
2020/12/12 13:57:13;;;;;;;35.97;18.80;;;;;;;4.97;91.00;99764.16;6177567;28;20138;-68
2020/12/12 14:00:14;;;;;;;33.03;17.20;;;;;;;5.00;90.74;99764.84;6177759;28;20047;-67
2020/12/12 14:03:16;;;;;;;33.22;17.75;;;;;;;4.98;90.36;99773.63;6177136;28;20062;-68
2020/12/12 14:06:17;;;;;;;33.92;17.60;;;;;;;4.90;90.69;99778.34;6177818;28;20063;-68
2020/12/12 14:09:39;;;;;;;36.15;18.80;;;;;;;4.87;91.30;99783.72;6177247;28;20085;-67
2020/12/12 14:22:56;;;;;;;33.83;17.20;;;;;;;4.92;91.69;99792.16;6177078;28;20129;-68
2020/12/12 14:29:17;;;;;;;30.45;16.45;;;;;;;4.92;91.53;99802.56;6166085;28;20496;-68